Time;durP1;ratioP1;P1;durP2;ratioP2;P2;SDS_P1;SDS_P2;PMS_P1;PMS_P2;Temp;Humidity;BMP_temperature;BMP_pressure;BME280_temperature;BME280_humidity;BME280_pressure;Samples;Min_cycle;Max_cycle;Signal;HPM_P1;HPM_P2
2023/05/01 00:01:33;;;;;;;;;;;;;;;17.85;60.53;96800.28;4215028;28;5667;-67
2023/05/01 00:03:36;;;;;;;;;;;;;;;17.85;60.52;96798.41;4216208;28;5832;-67
2023/05/01 00:05:39;;;;;;;;;;;;;;;17.83;60.49;96803.19;4216698;28;5762;-66
2023/05/01 00:07:42;;;;;;;;;;;;;;;17.83;60.67;96795.19;4213964;28;5760;-66
2023/05/01 00:09:45;;;;;;;;;;;;;;;17.83;60.77;96795.19;4214765;28;7299;-66
2023/05/01 00:11:48;;;;;;;;;;;;;;;17.80;60.97;96793.00;4211297;28;6380;-67
2023/05/01 00:13:53;;;;;;;;;;;;;;;17.80;60.71;96790.31;4218829;28;5653;-66
2023/05/01 00:15:57;;;;;;;;;;;;;;;17.78;60.77;96795.09;4218929;28;6446;-66
2023/05/01 00:18:00;;;;;;;;;;;;;;;17.77;60.83;96788.09;4217910;28;5663;-67
2023/05/01 00:20:04;;;;;;;;;;;;;;;17.78;60.95;96788.91;4217431;28;5667;-67
2023/05/01 00:22:07;;;;;;;;;;;;;;;17.77;61.16;96782.75;4217590;28;5676;-66
2023/05/01 00:24:10;;;;;;;;;;;;;;;17.78;61.00;96786.22;4209235;28;5767;-66
2023/05/01 00:26:13;;;;;;;;;;;;;;;17.78;61.10;96780.88;4217506;28;5667;-67
2023/05/01 00:28:18;;;;;;;;;;;;;;;17.79;61.10;96780.66;4217349;28;6338;-67
2023/05/01 00:30:21;;;;;;;;;;;;;;;17.81;61.15;96783.91;4217475;28;5656;-67
2023/05/01 00:32:25;;;;;;;;;;;;;;;17.80;60.96;96774.28;4217562;28;5697;-66
2023/05/01 00:34:29;;;;;;;;;;;;;;;17.80;61.07;96768.91;4217364;28;5871;-66
2023/05/01 00:36:31;;;;;;;;;;;;;;;17.82;61.36;96772.16;4217099;28;5656;-66
2023/05/01 00:38:34;;;;;;;;;;;;;;;17.82;61.32;96774.84;4217309;28;5810;-66
2023/05/01 00:40:42;;;;;;;;;;;;;;;17.84;61.46;96766.56;4217536;28;5663;-66
2023/05/01 00:42:45;;;;;;;;;;;;;;;17.85;61.38;96765.50;4217549;28;5902;-66
2023/05/01 00:44:48;;;;;;;;;;;;;;;17.83;61.33;96757.75;4217060;28;5668;-66
2023/05/01 00:46:51;;;;;;;;;;;;;;;17.83;61.36;96764.94;4208532;28;5686;-66
2023/05/01 00:48:55;;;;;;;;;;;;;;;17.82;61.42;96753.44;4216760;28;5672;-66
2023/05/01 00:51:00;;;;;;;;;;;;;;;17.83;61.53;96751.59;4209241;28;5774;-66
2023/05/01 00:53:03;;;;;;;;;;;;;;;17.82;61.53;96753.44;4218802;28;5664;-66
2023/05/01 00:55:07;;;;;;;;;;;;;;;17.81;61.46;96743.81;4216445;28;5669;-66
2023/05/01 00:57:11;;;;;;;;;;;;;;;17.81;61.43;96746.47;4217828;28;5950;-66
2023/05/01 00:59:14;;;;;;;;;;;;;;;17.82;61.48;96741.94;4217072;28;5692;-66
2023/05/01 01:01:17;;;;;;;;;;;;;;;17.81;61.61;96743.81;4218905;28;5759;-66
2023/05/01 01:03:20;;;;;;;;;;;;;;;17.79;61.64;96731.72;4214430;28;5818;-64
2023/05/01 01:05:28;;;;;;;;;;;;;;;17.76;61.72;96733.00;4215810;28;5692;-68
2023/05/01 01:07:39;;;;;;;;;;;;;;;17.73;61.70;96731.63;4212386;28;5761;-66
2023/05/01 01:09:50;;;;;;;;;;;;;;;17.71;61.73;96724.91;4215076;28;5780;-66
2023/05/01 01:12:13;;;;;;;;;;;;;;;17.69;61.74;96725.16;4204771;28;5705;-66
2023/05/01 01:14:20;;;;;;;;;;;;;;;17.69;61.90;96724.34;4209598;28;5676;-66
2023/05/01 01:16:31;;;;;;;;;;;;;;;17.69;61.82;96721.66;4216540;28;5687;-65
2023/05/01 01:18:39;;;;;;;;;;;;;;;17.69;61.87;96722.47;4213452;28;6486;-65
2023/05/01 01:20:49;;;;;;;;;;;;;;;17.67;61.88;96721.88;4220197;28;5650;-66
2023/05/01 01:23:03;;;;;;;;;;;;;;;17.67;61.88;96718.38;4219936;28;5758;-66
2023/05/01 01:25:29;;;;;;;;;;;;;;;17.64;61.95;96719.66;4217135;28;5681;-66
2023/05/01 01:28:00;;;;;;;;;;;;;;;17.63;61.99;96727.91;4211033;28;5660;-66
2023/05/01 01:30:29;;;;;;;;;;;;;;;17.58;61.93;96725.16;4220603;28;6347;-65
2023/05/01 01:32:56;;;;;;;;;;;;;;;17.54;62.10;96727.47;4215521;28;5656;-65
2023/05/01 01:35:03;;;;;;;;;;;;;;;17.53;62.03;96727.72;4216399;28;5675;-66
2023/05/01 01:37:13;;;;;;;;;;;;;;;17.53;62.15;96727.72;4215593;28;5767;-66
2023/05/01 01:39:27;;;;;;;;;;;;;;;17.51;62.07;96729.81;4213434;28;5630;-65
2023/05/01 01:41:33;;;;;;;;;;;;;;;17.51;62.03;96730.63;4215211;28;5883;-66
2023/05/01 01:43:40;;;;;;;;;;;;;;;17.47;61.98;96734.84;4216205;28;5872;-66
2023/05/01 01:45:46;;;;;;;;;;;;;;;17.48;61.97;96725.78;4216422;28;5804;-65
2023/05/01 01:47:51;;;;;;;;;;;;;;;17.49;62.11;96729.25;4216680;28;5727;-66
2023/05/01 01:49:56;;;;;;;;;;;;;;;17.47;61.94;96726.84;4210571;28;5847;-65
2023/05/01 01:52:01;;;;;;;;;;;;;;;17.43;62.14;96729.16;4215339;28;5785;-65
2023/05/01 01:54:05;;;;;;;;;;;;;;;17.42;62.03;96727.53;4217340;28;5718;-65
2023/05/01 01:56:09;;;;;;;;;;;;;;;17.37;61.94;96724.78;4216712;28;5652;-66
2023/05/01 01:58:15;;;;;;;;;;;;;;;17.35;62.08;96726.88;4216685;28;5690;-65
2023/05/01 02:00:20;;;;;;;;;;;;;;;17.36;62.07;96715.13;4208807;28;6497;-65
2023/05/01 02:02:25;;;;;;;;;;;;;;;17.38;61.98;96720.22;4216509;28;5730;-66
2023/05/01 02:04:29;;;;;;;;;;;;;;;17.38;61.97;96713.03;4213382;28;5870;-66
2023/05/01 02:06:34;;;;;;;;;;;;;;;17.39;62.03;96714.66;4211027;28;5672;-66
2023/05/01 02:08:41;;;;;;;;;;;;;;;17.38;62.04;96718.38;4218444;28;5652;-66
2023/05/01 02:10:45;;;;;;;;;;;;;;;17.38;61.79;96725.56;4212926;28;5688;-66
2023/05/01 02:12:51;;;;;;;;;;;;;;;17.34;61.84;96724.44;4218807;28;5663;-66
2023/05/01 02:14:54;;;;;;;;;;;;;;;17.34;61.92;96725.25;4203122;28;5791;-66
2023/05/01 02:16:57;;;;;;;;;;;;;;;17.34;61.87;96724.44;4217310;28;5672;-67
2023/05/01 02:19:02;;;;;;;;;;;;;;;17.35;61.74;96718.84;4218725;28;5785;-66
2023/05/01 02:21:05;;;;;;;;;;;;;;;17.37;61.68;96719.44;4218942;28;5683;-67
2023/05/01 02:23:10;;;;;;;;;;;;;;;17.38;61.54;96720.22;4218945;28;5673;-66
2023/05/01 02:25:15;;;;;;;;;;;;;;;17.37;61.62;96722.09;4212650;28;5666;-66
2023/05/01 02:27:22;;;;;;;;;;;;;;;17.39;61.52;96713.84;4211085;28;5746;-66
2023/05/01 02:29:26;;;;;;;;;;;;;;;17.40;61.68;96710.13;4210346;28;5675;-68
2023/05/01 02:31:29;;;;;;;;;;;;;;;17.39;61.57;96711.97;4222531;28;5766;-66
2023/05/01 02:33:32;;;;;;;;;;;;;;;17.38;61.48;96705.00;4216331;28;5906;-66
2023/05/01 02:35:39;;;;;;;;;;;;;;;17.35;61.47;96704.69;4211444;28;6009;-66
2023/05/01 02:37:43;;;;;;;;;;;;;;;17.32;61.47;96710.47;4214609;28;5702;-65
2023/05/01 02:39:46;;;;;;;;;;;;;;;17.30;61.61;96713.41;4218444;28;5679;-65
2023/05/01 02:41:53;;;;;;;;;;;;;;;17.30;61.48;96713.41;4221911;28;5869;-65
2023/05/01 02:44:03;;;;;;;;;;;;;;;17.27;61.55;96713.88;4217976;28;5680;-66
2023/05/01 02:46:09;;;;;;;;;;;;;;;17.27;61.67;96705.88;4218459;28;5803;-65
2023/05/01 02:48:16;;;;;;;;;;;;;;;17.26;61.83;96704.25;4203292;28;5685;-65
2023/05/01 02:50:21;;;;;;;;;;;;;;;17.25;61.60;96705.28;4204925;28;5724;-66
2023/05/01 02:52:24;;;;;;;;;;;;;;;17.25;61.60;96710.63;4218217;28;5693;-66
2023/05/01 02:54:28;;;;;;;;;;;;;;;17.22;61.68;96703.09;4218370;28;5745;-66
2023/05/01 02:56:31;;;;;;;;;;;;;;;17.22;61.73;96705.78;4220564;28;5664;-67
2023/05/01 02:58:36;;;;;;;;;;;;;;;17.22;61.76;96703.09;4210594;28;5786;-65
2023/05/01 03:00:39;;;;;;;;;;;;;;;17.21;61.66;96697.97;4218286;28;5823;-67
2023/05/01 03:02:42;;;;;;;;;;;;;;;17.21;61.72;96697.97;4217833;28;6517;-66
2023/05/01 03:04:45;;;;;;;;;;;;;;;17.21;61.73;96701.44;4218753;28;5726;-66
2023/05/01 03:06:47;;;;;;;;;;;;;;;17.22;61.79;96702.28;4217474;28;5668;-66
2023/05/01 03:08:50;;;;;;;;;;;;;;;17.22;61.73;96699.63;4217980;28;5778;-66
2023/05/01 03:10:53;;;;;;;;;;;;;;;17.21;61.76;96700.66;4217304;28;5851;-68
2023/05/01 03:12:56;;;;;;;;;;;;;;;17.18;61.82;96700.06;4213241;28;5093;-66
2023/05/01 03:15:00;;;;;;;;;;;;;;;17.17;61.92;96692.31;4214568;28;5681;-66
2023/05/01 03:17:03;;;;;;;;;;;;;;;17.17;61.99;96697.66;4216829;28;5108;-66
2023/05/01 03:19:06;;;;;;;;;;;;;;;17.17;62.01;96697.66;4217742;28;5671;-66
2023/05/01 03:21:09;;;;;;;;;;;;;;;17.16;62.09;96694.16;4217713;28;6486;-66
2023/05/01 03:23:12;;;;;;;;;;;;;;;17.14;61.90;96693.59;4211031;28;5667;-66
2023/05/01 03:25:15;;;;;;;;;;;;;;;17.15;62.11;96689.06;4212780;28;5853;-66
2023/05/01 03:27:18;;;;;;;;;;;;;;;17.15;62.12;96689.06;4214716;28;5734;-66
2023/05/01 03:29:20;;;;;;;;;;;;;;;17.18;62.21;96691.25;4212088;28;5692;-66
2023/05/01 03:31:25;;;;;;;;;;;;;;;17.17;62.11;96686.97;4217512;28;5901;-66
2023/05/01 03:33:28;;;;;;;;;;;;;;;17.19;62.21;96687.53;4211156;28;7699;-67
2023/05/01 03:35:30;;;;;;;;;;;;;;;17.19;62.23;96695.53;4222178;27;6364;-67
2023/05/01 03:37:33;;;;;;;;;;;;;;;17.22;62.27;96691.59;4218384;28;6351;-67
2023/05/01 03:39:36;;;;;;;;;;;;;;;17.22;62.15;96684.41;4221006;28;5672;-66
2023/05/01 03:41:39;;;;;;;;;;;;;;;17.20;62.38;96689.16;4215088;28;5801;-67
2023/05/01 03:43:42;;;;;;;;;;;;;;;17.22;62.24;96689.75;4220226;28;5664;-66
2023/05/01 03:45:45;;;;;;;;;;;;;;;17.23;62.33;96688.69;4217162;28;5675;-67
2023/05/01 03:47:49;;;;;;;;;;;;;;;17.24;62.38;96684.97;4213852;28;5684;-67
2023/05/01 03:49:52;;;;;;;;;;;;;;;17.24;62.44;96693.00;4222059;28;5638;-68
2023/05/01 03:51:55;;;;;;;;;;;;;;;17.23;62.45;96691.38;4224107;28;5675;-67
2023/05/01 03:53:58;;;;;;;;;;;;;;;17.20;62.34;96689.16;4214908;28;5777;-68
2023/05/01 03:56:03;;;;;;;;;;;;;;;17.19;62.47;96695.53;4209339;28;5685;-69
2023/05/01 03:58:06;;;;;;;;;;;;;;;17.21;62.50;96704.13;4210570;28;5684;-67
2023/05/01 04:00:10;;;;;;;;;;;;;;;17.20;62.56;96697.16;4210286;28;5742;-67
2023/05/01 04:02:13;;;;;;;;;;;;;;;17.18;62.51;96700.06;4217887;28;6760;-67
2023/05/01 04:04:18;;;;;;;;;;;;;;;17.17;62.62;96693.13;4217894;28;5950;-66
2023/05/01 04:06:21;;;;;;;;;;;;;;;17.17;62.70;96692.31;4217667;28;7663;-67
2023/05/01 04:08:24;;;;;;;;;;;;;;;17.14;62.66;96692.78;4217141;28;5671;-65
2023/05/01 04:10:27;;;;;;;;;;;;;;;17.11;62.79;96701.28;4218007;28;5766;-66
2023/05/01 04:12:30;;;;;;;;;;;;;;;17.12;62.76;96697.56;4216333;28;5693;-69
2023/05/01 04:14:33;;;;;;;;;;;;;;;17.12;62.66;96689.53;4217656;28;5783;-69
2023/05/01 04:16:36;;;;;;;;;;;;;;;17.10;62.95;96691.63;4217792;28;5077;-67
2023/05/01 04:18:39;;;;;;;;;;;;;;;17.10;62.84;96689.78;4217723;28;5855;-65
2023/05/01 04:20:43;;;;;;;;;;;;;;;17.10;62.96;96686.28;4217636;28;5731;-68
2023/05/01 04:22:46;;;;;;;;;;;;;;;17.12;62.94;96694.88;4217041;28;5660;-66
2023/05/01 04:24:50;;;;;;;;;;;;;;;17.12;62.89;96693.03;4217161;28;5787;-65
2023/05/01 04:26:53;;;;;;;;;;;;;;;17.12;62.94;96689.53;4217589;28;5806;-65
2023/05/01 04:28:55;;;;;;;;;;;;;;;17.14;63.00;96698.13;4217143;28;5812;-65
2023/05/01 04:30:58;;;;;;;;;;;;;;;17.14;63.00;96701.59;4213405;28;5803;-65
2023/05/01 04:33:01;;;;;;;;;;;;;;;17.17;62.86;96700.31;4215314;28;6108;-66
2023/05/01 04:35:05;;;;;;;;;;;;;;;17.18;62.93;96696.59;4211861;28;7713;-65
2023/05/01 04:37:09;;;;;;;;;;;;;;;17.16;62.95;96698.69;4222622;28;5898;-66
2023/05/01 04:39:12;;;;;;;;;;;;;;;17.12;62.99;96706.38;4212694;28;5654;-65
2023/05/01 04:41:15;;;;;;;;;;;;;;;17.07;62.80;96698.25;4209396;28;5708;-65
2023/05/01 04:43:18;;;;;;;;;;;;;;;17.06;62.75;96714.50;4211923;28;5672;-66
2023/05/01 04:45:21;;;;;;;;;;;;;;;17.04;62.75;96706.75;4203642;28;7610;-65
2023/05/01 04:47:23;;;;;;;;;;;;;;;17.05;62.64;96715.56;4204762;28;5993;-65
2023/05/01 04:49:26;;;;;;;;;;;;;;;17.05;62.67;96715.56;4210986;28;5672;-65
2023/05/01 04:51:29;;;;;;;;;;;;;;;17.02;62.61;96711.50;4216428;28;5762;-67
2023/05/01 04:53:34;;;;;;;;;;;;;;;17.05;62.39;96718.22;4206202;28;5660;-66
2023/05/01 04:55:37;;;;;;;;;;;;;;;17.05;62.30;96720.91;4218288;28;5684;-66
2023/05/01 04:57:40;;;;;;;;;;;;;;;17.03;62.05;96715.81;4215884;28;5656;-66
2023/05/01 04:59:43;;;;;;;;;;;;;;;16.99;62.05;96716.50;4216372;28;5797;-66
2023/05/01 05:01:46;;;;;;;;;;;;;;;16.93;61.98;96712.09;4217070;27;5676;-65
2023/05/01 05:03:50;;;;;;;;;;;;;;;16.90;61.98;96712.59;4216613;28;5712;-65
2023/05/01 05:05:54;;;;;;;;;;;;;;;16.86;61.89;96712.22;4216298;28;5663;-66
2023/05/01 05:07:57;;;;;;;;;;;;;;;16.83;61.95;96716.19;4204142;28;5681;-67
2023/05/01 05:10:01;;;;;;;;;;;;;;;16.83;61.73;96718.84;4195032;28;5814;-65
2023/05/01 05:12:04;;;;;;;;;;;;;;;16.82;61.78;96716.41;4197019;28;5697;-66
2023/05/01 05:14:07;;;;;;;;;;;;;;;16.82;61.66;96714.56;4196247;28;5775;-66
2023/05/01 05:16:10;;;;;;;;;;;;;;;16.81;61.62;96720.94;4193970;28;6792;-65
2023/05/01 05:18:13;;;;;;;;;;;;;;;16.83;61.50;96723.38;4192239;28;5843;-65
2023/05/01 05:20:16;;;;;;;;;;;;;;;16.84;61.36;96717.00;4192790;28;5689;-65
2023/05/01 05:22:19;;;;;;;;;;;;;;;16.86;61.24;96729.06;4198753;28;5846;-66
2023/05/01 05:24:22;;;;;;;;;;;;;;;16.89;61.12;96727.78;4198778;28;5901;-65
2023/05/01 05:26:27;;;;;;;;;;;;;;;16.91;61.04;96719.53;4200786;28;5702;-65
2023/05/01 05:28:30;;;;;;;;;;;;;;;16.91;61.07;96731.03;4199093;28;5692;-65
2023/05/01 05:30:33;;;;;;;;;;;;;;;16.86;60.95;96726.38;4200833;28;5689;-65
2023/05/01 05:32:36;;;;;;;;;;;;;;;16.83;60.94;96723.38;4197452;28;5697;-65
2023/05/01 05:34:39;;;;;;;;;;;;;;;16.79;60.92;96722.22;4199437;28;5680;-66
2023/05/01 05:36:42;;;;;;;;;;;;;;;16.71;60.94;96726.06;4196292;28;5705;-66
2023/05/01 05:38:45;;;;;;;;;;;;;;;16.60;61.00;96729.50;4199776;28;5682;-66
2023/05/01 05:40:48;;;;;;;;;;;;;;;16.56;61.12;96739.03;4200029;28;5697;-66
2023/05/01 05:42:52;;;;;;;;;;;;;;;16.53;61.08;96728.81;4201392;28;5756;-68
2023/05/01 05:44:55;;;;;;;;;;;;;;;16.60;61.17;96737.53;4201438;28;5678;-66
2023/05/01 05:46:57;;;;;;;;;;;;;;;16.63;60.80;96737.03;4202713;28;5826;-66
2023/05/01 05:49:00;;;;;;;;;;;;;;;16.65;60.77;96743.00;4201909;28;5697;-67
2023/05/01 05:51:04;;;;;;;;;;;;;;;16.64;60.74;96748.53;4202547;28;5106;-66
2023/05/01 05:53:07;;;;;;;;;;;;;;;16.58;60.76;96742.28;4190102;28;5808;-66
2023/05/01 05:55:11;;;;;;;;;;;;;;;16.60;60.76;96746.34;4193926;28;5688;-65
2023/05/01 05:57:13;;;;;;;;;;;;;;;16.60;60.76;96741.00;4201127;28;5845;-66
2023/05/01 05:59:18;;;;;;;;;;;;;;;16.64;60.78;96738.66;4190987;28;5681;-64
2023/05/01 06:01:21;;;;;;;;;;;;;;;16.69;60.75;96735.34;4197946;28;6385;-65
2023/05/01 06:03:24;;;;;;;;;;;;;;;16.71;60.59;96736.75;4202491;28;5704;-65
2023/05/01 06:05:27;;;;;;;;;;;;;;;16.74;60.54;96736.25;4195087;28;5784;-65
2023/05/01 06:07:30;;;;;;;;;;;;;;;16.74;60.34;96732.78;4195804;28;5686;-64
2023/05/01 06:09:33;;;;;;;;;;;;;;;16.67;60.44;96722.22;4192784;28;5678;-65
2023/05/01 06:11:36;;;;;;;;;;;;;;;16.69;60.59;96732.69;4197677;28;5697;-65
2023/05/01 06:13:39;;;;;;;;;;;;;;;16.67;60.55;96724.88;4202022;28;5700;-65
2023/05/01 06:15:43;;;;;;;;;;;;;;;16.70;60.50;96724.44;4202499;28;5685;-64
2023/05/01 06:17:47;;;;;;;;;;;;;;;16.71;60.42;96728.72;4201123;28;5708;-65
2023/05/01 06:19:51;;;;;;;;;;;;;;;16.72;60.24;96725.00;4202776;28;5668;-65
2023/05/01 06:21:54;;;;;;;;;;;;;;;16.73;60.33;96723.16;4202290;28;5784;-66
2023/05/01 06:23:56;;;;;;;;;;;;;;;16.69;60.22;96730.00;4199650;28;5810;-66
2023/05/01 06:25:59;;;;;;;;;;;;;;;16.66;60.29;96728.59;4199471;28;5701;-66
2023/05/01 06:28:02;;;;;;;;;;;;;;;16.69;60.12;96727.34;4202137;28;5836;-67
2023/05/01 06:30:08;;;;;;;;;;;;;;;16.72;60.32;96733.03;4201631;28;5720;-66
2023/05/01 06:32:12;;;;;;;;;;;;;;;16.75;59.87;96737.88;4190117;28;5692;-66
2023/05/01 06:34:15;;;;;;;;;;;;;;;16.70;59.88;96737.78;4196712;28;5677;-70
2023/05/01 06:36:17;;;;;;;;;;;;;;;16.70;59.94;96744.97;4197016;28;5916;-72
2023/05/01 06:38:20;;;;;;;;;;;;;;;16.74;59.92;96746.13;4198079;28;5788;-69
2023/05/01 06:40:23;;;;;;;;;;;;;;;16.80;59.71;96746.03;4200582;28;5732;-68
2023/05/01 06:42:26;;;;;;;;;;;;;;;16.78;59.70;96748.13;4204259;28;6596;-69
2023/05/01 06:44:29;;;;;;;;;;;;;;;16.83;59.64;96745.53;4198777;28;5802;-68
2023/05/01 06:46:34;;;;;;;;;;;;;;;16.90;59.53;96749.97;4199749;28;5681;-68
2023/05/01 06:48:39;;;;;;;;;;;;;;;16.94;59.49;96751.09;4200981;28;5693;-68
2023/05/01 06:50:42;;;;;;;;;;;;;;;16.91;59.42;96756.94;4199410;28;5681;-69
2023/05/01 06:52:45;;;;;;;;;;;;;;;16.84;59.58;96757.84;4196976;28;5724;-66
2023/05/01 06:54:48;;;;;;;;;;;;;;;16.78;59.69;96760.66;4199603;28;5753;-69
2023/05/01 06:56:51;;;;;;;;;;;;;;;16.74;59.53;96762.97;4200801;28;5689;-68
2023/05/01 06:58:54;;;;;;;;;;;;;;;16.74;59.47;96762.16;4201378;28;5780;-69
2023/05/01 07:00:57;;;;;;;;;;;;;;;16.75;59.54;96763.75;4201628;28;5721;-69
2023/05/01 07:03:01;;;;;;;;;;;;;;;16.77;59.40;96761.69;4201576;28;5838;-74
2023/05/01 07:05:09;;;;;;;;;;;;;;;16.70;59.32;96761.81;4201533;28;6189;-70
2023/05/01 07:07:12;;;;;;;;;;;;;;;16.65;59.40;96759.00;4201650;28;5095;-68
2023/05/01 07:09:16;;;;;;;;;;;;;;;16.67;59.28;96758.78;4208772;28;5764;-70
2023/05/01 07:11:19;;;;;;;;;;;;;;;16.72;59.35;96758.91;4201306;28;5697;-68
2023/05/01 07:13:22;;;;;;;;;;;;;;;16.75;59.17;96753.91;4200735;28;7834;-69
2023/05/01 07:15:25;;;;;;;;;;;;;;;16.77;58.95;96751.84;4201011;28;5697;-69
2023/05/01 07:17:29;;;;;;;;;;;;;;;16.80;58.97;96761.22;4194870;28;5836;-68
2023/05/01 07:19:33;;;;;;;;;;;;;;;16.82;59.11;96756.47;4200686;28;5795;-68
2023/05/01 07:21:37;;;;;;;;;;;;;;;16.81;58.98;96755.66;4200679;28;5798;-70
2023/05/01 07:23:40;;;;;;;;;;;;;;;16.84;59.12;96763.19;4201348;28;5712;-71
2023/05/01 07:25:44;;;;;;;;;;;;;;;16.89;59.05;96759.84;4204292;28;5769;-71
2023/05/01 07:27:47;;;;;;;;;;;;;;;16.93;58.96;96774.34;4200537;28;5704;-71
2023/05/01 07:29:51;;;;;;;;;;;;;;;16.92;58.99;96770.03;4200922;28;5177;-68
2023/05/01 07:31:53;;;;;;;;;;;;;;;16.91;58.94;96786.31;4199998;28;5826;-69
2023/05/01 07:33:57;;;;;;;;;;;;;;;16.94;58.94;96777.81;4194587;28;5718;-68
2023/05/01 07:35:59;;;;;;;;;;;;;;;16.93;58.83;96782.34;4199688;28;5690;-67
2023/05/01 07:38:04;;;;;;;;;;;;;;;16.94;58.85;96788.50;4200834;28;5696;-70
2023/05/01 07:40:08;;;;;;;;;;;;;;;16.88;58.95;96790.25;4201111;28;5755;-69
2023/05/01 07:42:10;;;;;;;;;;;;;;;16.85;58.93;96798.72;4200877;28;5677;-71
2023/05/01 07:44:13;;;;;;;;;;;;;;;16.88;58.82;96798.25;4208249;28;5432;-72
2023/05/01 07:46:16;;;;;;;;;;;;;;;16.93;58.95;96800.22;4201314;28;5693;-72
2023/05/01 07:48:19;;;;;;;;;;;;;;;16.96;58.74;96802.41;4201155;28;6372;-71
2023/05/01 07:50:23;;;;;;;;;;;;;;;16.96;58.82;96802.41;4200820;28;5749;-67
2023/05/01 07:52:27;;;;;;;;;;;;;;;16.96;58.80;96805.09;4197105;28;5820;-68
2023/05/01 07:54:31;;;;;;;;;;;;;;;16.92;58.85;96801.28;4196411;28;5768;-74
2023/05/01 07:56:34;;;;;;;;;;;;;;;16.91;58.77;96805.81;4200510;28;5701;-68
2023/05/01 07:58:39;;;;;;;;;;;;;;;16.83;58.62;96806.94;4200267;28;5701;-69
2023/05/01 08:00:43;;;;;;;;;;;;;;;16.76;59.04;96811.63;4201354;28;5693;-68
2023/05/01 08:02:47;;;;;;;;;;;;;;;16.78;58.81;96809.53;4200331;28;5834;-68
2023/05/01 08:04:50;;;;;;;;;;;;;;;16.80;58.81;96803.94;4197836;28;7888;-78
2023/05/01 08:06:53;;;;;;;;;;;;;;;16.74;58.81;96803.00;4199086;28;5689;-73
2023/05/01 08:08:56;;;;;;;;;;;;;;;16.71;58.89;96803.47;4193090;28;5842;-66
2023/05/01 08:11:00;;;;;;;;;;;;;;;16.72;58.92;96806.94;4196922;28;5855;-66
2023/05/01 08:13:06;;;;;;;;;;;;;;;16.76;58.74;96803.59;4196676;28;5709;-69
2023/05/01 08:15:10;;;;;;;;;;;;;;;16.76;58.74;96808.09;4198839;28;5692;-68
2023/05/01 08:17:13;;;;;;;;;;;;;;;16.77;58.72;96801.75;4193778;28;5697;-68
2023/05/01 08:19:16;;;;;;;;;;;;;;;16.79;58.80;96802.31;4197784;28;5696;-67
2023/05/01 08:21:19;;;;;;;;;;;;;;;16.66;58.99;96798.00;4195591;28;5677;-67
2023/05/01 08:23:24;;;;;;;;;;;;;;;16.64;59.19;96805.41;4196931;28;5892;-67
2023/05/01 08:25:27;;;;;;;;;;;;;;;16.69;59.17;96804.75;4197536;28;5684;-68
2023/05/01 08:27:31;;;;;;;;;;;;;;;16.75;59.05;96812.63;4191131;28;5764;-68
2023/05/01 08:29:34;;;;;;;;;;;;;;;16.83;59.02;96812.28;4199862;28;5834;-68
2023/05/01 08:31:38;;;;;;;;;;;;;;;16.90;58.83;96812.19;4199301;28;5684;-68
2023/05/01 08:33:43;;;;;;;;;;;;;;;16.91;58.99;96810.34;4200240;28;5697;-70
2023/05/01 08:35:46;;;;;;;;;;;;;;;16.93;58.87;96802.91;4197685;28;5697;-69
2023/05/01 08:37:48;;;;;;;;;;;;;;;16.96;59.08;96821.13;4191184;28;5721;-67
2023/05/01 08:39:51;;;;;;;;;;;;;;;16.98;58.94;96817.16;4196054;28;5936;-67
2023/05/01 08:41:57;;;;;;;;;;;;;;;17.00;59.00;96814.28;4193858;28;5803;-67
2023/05/01 08:44:02;;;;;;;;;;;;;;;17.00;59.15;96819.63;4198601;28;5777;-71
2023/05/01 08:46:09;;;;;;;;;;;;;;;17.03;58.85;96830.66;4198462;28;5757;-69
2023/05/01 08:48:13;;;;;;;;;;;;;;;17.05;59.23;96827.72;4192089;28;5708;-68
2023/05/01 08:50:18;;;;;;;;;;;;;;;17.08;59.30;96827.25;4194428;28;6369;-67
2023/05/01 08:52:22;;;;;;;;;;;;;;;17.16;59.44;96829.59;4196631;28;5688;-66
2023/05/01 08:54:28;;;;;;;;;;;;;;;17.20;59.31;96830.72;4200153;28;5859;-69
2023/05/01 08:56:32;;;;;;;;;;;;;;;17.19;59.34;96829.09;4195538;28;5681;-69
2023/05/01 08:58:35;;;;;;;;;;;;;;;17.19;59.55;96834.44;4199002;28;5835;-68
2023/05/01 09:00:41;;;;;;;;;;;;;;;17.15;59.58;96828.78;4197338;28;5764;-69
2023/05/01 09:02:46;;;;;;;;;;;;;;;17.19;59.91;96829.09;4195013;28;5946;-70
2023/05/01 09:04:51;;;;;;;;;;;;;;;17.26;59.95;96837.00;4199824;28;5189;-65
2023/05/01 09:06:55;;;;;;;;;;;;;;;17.28;59.76;96833.06;4196277;28;7844;-66
2023/05/01 09:08:58;;;;;;;;;;;;;;;17.28;59.95;96826.91;4196182;28;5840;-66
2023/05/01 09:11:02;;;;;;;;;;;;;;;17.29;60.00;96840.03;4194939;28;5790;-64
2023/05/01 09:13:07;;;;;;;;;;;;;;;17.32;60.08;96836.88;4197515;28;5777;-64
2023/05/01 09:15:11;;;;;;;;;;;;;;;17.34;60.12;96839.34;4192809;28;5689;-64
2023/05/01 09:17:15;;;;;;;;;;;;;;;17.33;60.24;96846.53;4191930;28;5887;-65
2023/05/01 09:19:19;;;;;;;;;;;;;;;17.36;60.28;96851.41;4194286;28;5880;-64
2023/05/01 09:21:24;;;;;;;;;;;;;;;17.34;60.28;96850.84;4202092;28;5696;-64
2023/05/01 09:23:28;;;;;;;;;;;;;;;17.28;60.48;96849.09;4201931;28;5791;-65
2023/05/01 09:25:31;;;;;;;;;;;;;;;17.27;60.42;96852.81;4202204;28;5685;-65
2023/05/01 09:27:35;;;;;;;;;;;;;;;17.27;60.44;96852.81;4199832;28;5672;-64
2023/05/01 09:29:39;;;;;;;;;;;;;;;17.25;60.60;96852.22;4200989;28;5701;-68
2023/05/01 09:31:42;;;;;;;;;;;;;;;17.24;60.59;96844.47;4200227;28;5862;-65
2023/05/01 09:33:56;;;;;;;;;;;;;;;17.21;60.58;96859.06;4199398;28;5941;-64
2023/05/01 09:35:59;;;;;;;;;;;;;;;17.18;60.57;96852.34;4201279;28;7718;-65
2023/05/01 09:38:01;;;;;;;;;;;;;;;17.19;60.60;96858.50;4195218;28;6639;-64
2023/05/01 09:40:07;;;;;;;;;;;;;;;17.21;60.54;96855.59;4193609;28;6386;-65
2023/05/01 09:42:10;;;;;;;;;;;;;;;17.17;60.34;96866.75;4195434;28;5847;-64
2023/05/01 09:44:19;;;;;;;;;;;;;;;17.15;60.59;96865.34;4194279;28;5980;-65
2023/05/01 09:46:23;;;;;;;;;;;;;;;17.11;60.55;96859.69;4197835;28;5689;-66
2023/05/01 09:48:26;;;;;;;;;;;;;;;17.08;60.76;96861.97;4201025;28;5855;-66
2023/05/01 09:50:32;;;;;;;;;;;;;;;17.07;60.74;96868.38;4202034;28;6112;-64
2023/05/01 09:52:35;;;;;;;;;;;;;;;17.05;60.78;96860.59;4206518;28;5682;-64
2023/05/01 09:54:38;;;;;;;;;;;;;;;17.02;60.87;96868.28;4200918;28;5693;-64
2023/05/01 09:56:47;;;;;;;;;;;;;;;17.00;60.88;96870.38;4202334;28;5686;-64
2023/05/01 09:58:51;;;;;;;;;;;;;;;17.01;60.66;96866.66;4195418;28;5761;-64
2023/05/01 10:00:54;;;;;;;;;;;;;;;17.00;60.83;96865.03;4194859;28;5729;-64
2023/05/01 10:02:57;;;;;;;;;;;;;;;16.98;60.76;96870.56;4199023;28;5854;-64
2023/05/01 10:05:00;;;;;;;;;;;;;;;16.96;60.88;96870.00;4198531;28;5689;-64
2023/05/01 10:07:14;;;;;;;;;;;;;;;16.98;60.79;96867.09;4202004;28;5681;-64
2023/05/01 10:09:27;;;;;;;;;;;;;;;17.00;60.84;96875.69;4189796;28;5825;-64
2023/05/01 10:11:30;;;;;;;;;;;;;;;17.02;60.83;96873.59;4192668;28;5816;-65
2023/05/01 10:13:33;;;;;;;;;;;;;;;17.04;60.73;96868.84;4202013;28;5678;-64
2023/05/01 10:15:37;;;;;;;;;;;;;;;17.05;60.69;96875.81;4196945;28;7081;-64
2023/05/01 10:17:42;;;;;;;;;;;;;;;17.04;60.81;96877.66;4200404;28;5704;-65
2023/05/01 10:19:44;;;;;;;;;;;;;;;17.05;60.69;96875.81;4202044;28;5684;-64
2023/05/01 10:21:47;;;;;;;;;;;;;;;17.05;60.76;96881.16;4196609;28;5820;-64
2023/05/01 10:23:52;;;;;;;;;;;;;;;17.05;60.74;96889.97;4200575;28;5833;-65
2023/05/01 10:25:57;;;;;;;;;;;;;;;17.05;60.72;96889.16;4200922;28;5843;-64
2023/05/01 10:28:03;;;;;;;;;;;;;;;17.05;60.61;96881.16;4200293;28;5705;-65
2023/05/01 10:30:09;;;;;;;;;;;;;;;17.08;60.58;96883.34;4194466;28;5721;-64
2023/05/01 10:32:13;;;;;;;;;;;;;;;17.11;60.58;96885.56;4194194;28;5733;-65
2023/05/01 10:34:18;;;;;;;;;;;;;;;17.12;60.63;96884.53;4202030;28;5957;-64
2023/05/01 10:36:25;;;;;;;;;;;;;;;17.17;60.63;96889.97;4195928;28;5784;-64
2023/05/01 10:38:33;;;;;;;;;;;;;;;17.23;60.56;96890.91;4197513;28;5806;-64
2023/05/01 10:40:49;;;;;;;;;;;;;;;17.28;60.65;96893.69;4196496;28;5696;-65
2023/05/01 10:43:15;;;;;;;;;;;;;;;17.31;60.38;96891.34;4200082;28;6484;-68
2023/05/01 10:45:29;;;;;;;;;;;;;;;17.32;60.30;96892.97;4198147;28;6371;-76
2023/05/01 10:47:46;;;;;;;;;;;;;;;17.34;60.25;96901.59;4200082;28;5794;-73
2023/05/01 10:50:06;;;;;;;;;;;;;;;17.31;60.39;96896.72;4197502;28;6613;-62
2023/05/01 10:52:10;;;;;;;;;;;;;;;17.32;60.25;96903.66;4200754;28;5697;-62
2023/05/01 10:54:24;;;;;;;;;;;;;;;17.30;60.15;96894.28;4201089;28;5911;-61
2023/05/01 10:56:42;;;;;;;;;;;;;;;17.29;60.34;96896.13;4194449;28;5756;-61
2023/05/01 10:58:57;;;;;;;;;;;;;;;17.30;60.25;96896.94;4199715;28;5840;-62